sensor_id;sensor_type;location;lat;lon;timestamp;pressure;altitude;pressure_sealevel;temperature;humidity
62203;BME280;48199;49.138;7.414;2022-08-19T00:00:03;98164.50;;;18.44;100.00
62203;BME280;48199;49.138;7.414;2022-08-19T00:02:29;98170.19;;;18.38;100.00
62203;BME280;48199;49.138;7.414;2022-08-19T00:04:55;98166.59;;;18.39;100.00
62203;BME280;48199;49.138;7.414;2022-08-19T00:07:20;98163.81;;;18.41;100.00
62203;BME280;48199;49.138;7.414;2022-08-19T00:09:46;98152.97;;;18.44;100.00
62203;BME280;48199;49.138;7.414;2022-08-19T00:12:12;98149.75;;;18.39;100.00
62203;BME280;48199;49.138;7.414;2022-08-19T00:14:38;98155.06;;;18.39;100.00
62203;BME280;48199;49.138;7.414;2022-08-19T00:17:05;98141.66;;;18.40;100.00
62203;BME280;48199;49.138;7.414;2022-08-19T00:19:32;98139.41;;;18.33;100.00
62203;BME280;48199;49.138;7.414;2022-08-19T00:21:58;98149.03;;;18.35;100.00
62203;BME280;48199;49.138;7.414;2022-08-19T00:24:25;98155.22;;;18.36;100.00
62203;BME280;48199;49.138;7.414;2022-08-19T00:26:51;98154.34;;;18.35;100.00
62203;BME280;48199;49.138;7.414;2022-08-19T00:29:19;98158.50;;;18.25;100.00
62203;BME280;48199;49.138;7.414;2022-08-19T00:31:45;98172.78;;;18.24;100.00
62203;BME280;48199;49.138;7.414;2022-08-19T00:34:12;98165.22;;;18.17;100.00
62203;BME280;48199;49.138;7.414;2022-08-19T00:36:39;98165.38;;;18.14;100.00
62203;BME280;48199;49.138;7.414;2022-08-19T00:39:05;98166.53;;;18.10;100.00
62203;BME280;48199;49.138;7.414;2022-08-19T00:41:31;98157.66;;;18.09;100.00
62203;BME280;48199;49.138;7.414;2022-08-19T00:43:59;98153.19;;;18.10;100.00
62203;BME280;48199;49.138;7.414;2022-08-19T00:46:25;98148.72;;;18.10;100.00
62203;BME280;48199;49.138;7.414;2022-08-19T00:48:50;98141.59;;;18.11;100.00
62203;BME280;48199;49.138;7.414;2022-08-19T00:51:16;98128.63;;;18.05;100.00
62203;BME280;48199;49.138;7.414;2022-08-19T00:53:41;98133.78;;;18.08;100.00
62203;BME280;48199;49.138;7.414;2022-08-19T00:56:08;98133.28;;;18.01;100.00
62203;BME280;48199;49.138;7.414;2022-08-19T00:58:34;98140.56;;;17.98;100.00
62203;BME280;48199;49.138;7.414;2022-08-19T01:01:03;98137.22;;;17.94;100.00
62203;BME280;48199;49.138;7.414;2022-08-19T01:03:28;98137.03;;;17.97;100.00
62203;BME280;48199;49.138;7.414;2022-08-19T01:05:54;98144.53;;;17.91;100.00
62203;BME280;48199;49.138;7.414;2022-08-19T01:08:21;98138.25;;;17.92;100.00
62203;BME280;48199;49.138;7.414;2022-08-19T01:10:50;98132.94;;;17.92;100.00
62203;BME280;48199;49.138;7.414;2022-08-19T01:13:19;98132.22;;;17.88;100.00
62203;BME280;48199;49.138;7.414;2022-08-19T01:15:49;98123.75;;;17.82;100.00
62203;BME280;48199;49.138;7.414;2022-08-19T01:18:17;98128.19;;;17.81;100.00
62203;BME280;48199;49.138;7.414;2022-08-19T01:20:44;98124.88;;;17.78;100.00
62203;BME280;48199;49.138;7.414;2022-08-19T01:23:11;98137.41;;;17.76;100.00
62203;BME280;48199;49.138;7.414;2022-08-19T01:25:49;98139.28;;;17.74;100.00
62203;BME280;48199;49.138;7.414;2022-08-19T01:28:25;98153.38;;;17.76;100.00
62203;BME280;48199;49.138;7.414;2022-08-19T01:30:51;98157.16;;;17.72;100.00
62203;BME280;48199;49.138;7.414;2022-08-19T01:33:17;98160.72;;;17.71;100.00
62203;BME280;48199;49.138;7.414;2022-08-19T01:35:44;98170.53;;;17.70;100.00
62203;BME280;48199;49.138;7.414;2022-08-19T01:38:20;98165.88;;;17.74;100.00
62203;BME280;48199;49.138;7.414;2022-08-19T01:40:46;98173.72;;;17.77;100.00
62203;BME280;48199;49.138;7.414;2022-08-19T01:43:11;98166.59;;;17.77;100.00
62203;BME280;48199;49.138;7.414;2022-08-19T01:45:37;98167.28;;;17.81;100.00
62203;BME280;48199;49.138;7.414;2022-08-19T01:48:05;98172.63;;;17.81;100.00
62203;BME280;48199;49.138;7.414;2022-08-19T01:50:32;98165.56;;;17.80;100.00
62203;BME280;48199;49.138;7.414;2022-08-19T01:52:58;98161.34;;;17.76;100.00
62203;BME280;48199;49.138;7.414;2022-08-19T01:55:25;98168.63;;;17.72;100.00
62203;BME280;48199;49.138;7.414;2022-08-19T01:57:52;98157.81;;;17.75;100.00
62203;BME280;48199;49.138;7.414;2022-08-19T02:00:22;98178.28;;;17.75;100.00
62203;BME280;48199;49.138;7.414;2022-08-19T02:02:48;98171.03;;;17.77;100.00
62203;BME280;48199;49.138;7.414;2022-08-19T02:05:13;98171.03;;;17.77;100.00
62203;BME280;48199;49.138;7.414;2022-08-19T02:07:40;98162.31;;;17.75;100.00
62203;BME280;48199;49.138;7.414;2022-08-19T02:10:08;98173.13;;;17.72;100.00
62203;BME280;48199;49.138;7.414;2022-08-19T02:12:35;98174.03;;;17.71;100.00
62203;BME280;48199;49.138;7.414;2022-08-19T02:15:02;98183.69;;;17.73;100.00
62203;BME280;48199;49.138;7.414;2022-08-19T02:17:29;98178.28;;;17.75;100.00
62203;BME280;48199;49.138;7.414;2022-08-19T02:19:55;98181.69;;;17.77;100.00
62203;BME280;48199;49.138;7.414;2022-08-19T02:22:22;98181.69;;;17.77;100.00
62203;BME280;48199;49.138;7.414;2022-08-19T02:24:47;98180.00;;;17.76;100.00
62203;BME280;48199;49.138;7.414;2022-08-19T02:27:13;98184.28;;;17.78;100.00
62203;BME280;48199;49.138;7.414;2022-08-19T02:29:39;98182.03;;;17.71;100.00
62203;BME280;48199;49.138;7.414;2022-08-19T02:32:04;98190.81;;;17.73;100.00
62203;BME280;48199;49.138;7.414;2022-08-19T02:34:30;98192.00;;;17.67;100.00
62203;BME280;48199;49.138;7.414;2022-08-19T02:36:55;98189.41;;;17.66;100.00
62203;BME280;48199;49.138;7.414;2022-08-19T02:39:20;98184.09;;;17.66;100.00
62203;BME280;48199;49.138;7.414;2022-08-19T02:41:46;98178.63;;;17.69;100.00
62203;BME280;48199;49.138;7.414;2022-08-19T02:44:11;98176.91;;;17.68;100.00
62203;BME280;48199;49.138;7.414;2022-08-19T02:46:37;98177.66;;;17.70;100.00
62203;BME280;48199;49.138;7.414;2022-08-19T02:49:06;98184.69;;;17.71;100.00
62203;BME280;48199;49.138;7.414;2022-08-19T02:51:42;98182.22;;;17.68;100.00
62203;BME280;48199;49.138;7.414;2022-08-19T02:54:11;98184.09;;;17.66;100.00
62203;BME280;48199;49.138;7.414;2022-08-19T02:56:39;98181.53;;;17.64;100.00
62203;BME280;48199;49.138;7.414;2022-08-19T02:59:06;98185.81;;;17.67;100.00
62203;BME280;48199;49.138;7.414;2022-08-19T03:01:34;98186.75;;;17.66;100.00
62203;BME280;48199;49.138;7.414;2022-08-19T03:04:02;98181.94;;;17.57;100.00
62203;BME280;48199;49.138;7.414;2022-08-19T03:06:29;98183.06;;;17.53;100.00
62203;BME280;48199;49.138;7.414;2022-08-19T03:08:55;98184.59;;;17.57;100.00
62203;BME280;48199;49.138;7.414;2022-08-19T03:11:25;98179.44;;;17.54;100.00
62203;BME280;48199;49.138;7.414;2022-08-19T03:13:51;98176.84;;;17.52;100.00
62203;BME280;48199;49.138;7.414;2022-08-19T03:16:19;98182.09;;;17.54;100.00
62203;BME280;48199;49.138;7.414;2022-08-19T03:18:45;98173.09;;;17.56;100.00
62203;BME280;48199;49.138;7.414;2022-08-19T03:21:15;98175.50;;;17.61;100.00
62203;BME280;48199;49.138;7.414;2022-08-19T03:23:41;98182.56;;;17.62;100.00
62203;BME280;48199;49.138;7.414;2022-08-19T03:26:06;98185.63;;;17.54;100.00
62203;BME280;48199;49.138;7.414;2022-08-19T03:28:33;98183.03;;;17.36;100.00
62203;BME280;48199;49.138;7.414;2022-08-19T03:31:11;98189.41;;;17.33;100.00
62203;BME280;48199;49.138;7.414;2022-08-19T03:33:37;98196.34;;;17.36;100.00
62203;BME280;48199;49.138;7.414;2022-08-19T03:36:04;98204.44;;;17.34;100.00
62203;BME280;48199;49.138;7.414;2022-08-19T03:38:31;98191.91;;;17.36;100.00
62203;BME280;48199;49.138;7.414;2022-08-19T03:40:57;98191.22;;;17.33;100.00
62203;BME280;48199;49.138;7.414;2022-08-19T03:43:22;98196.63;;;17.31;100.00
62203;BME280;48199;49.138;7.414;2022-08-19T03:45:48;98190.44;;;17.31;100.00
62203;BME280;48199;49.138;7.414;2022-08-19T03:48:14;98192.94;;;17.34;100.00
62203;BME280;48199;49.138;7.414;2022-08-19T03:50:41;98196.53;;;17.33;100.00
62203;BME280;48199;49.138;7.414;2022-08-19T03:53:07;98196.34;;;17.36;100.00
62203;BME280;48199;49.138;7.414;2022-08-19T03:55:39;98202.69;;;17.33;100.00
62203;BME280;48199;49.138;7.414;2022-08-19T03:58:05;98205.44;;;17.32;100.00
62203;BME280;48199;49.138;7.414;2022-08-19T04:00:31;98198.56;;;17.27;100.00
62203;BME280;48199;49.138;7.414;2022-08-19T04:02:57;98204.44;;;17.17;100.00
62203;BME280;48199;49.138;7.414;2022-08-19T04:05:23;98200.00;;;17.00;100.00
62203;BME280;48199;49.138;7.414;2022-08-19T04:07:48;98202.03;;;16.95;100.00
62203;BME280;48199;49.138;7.414;2022-08-19T04:10:13;98201.34;;;16.92;100.00
62203;BME280;48199;49.138;7.414;2022-08-19T04:12:39;98199.63;;;16.91;100.00
62203;BME280;48199;49.138;7.414;2022-08-19T04:15:04;98206.13;;;16.85;100.00
62203;BME280;48199;49.138;7.414;2022-08-19T04:17:31;98197.50;;;16.80;100.00
62203;BME280;48199;49.138;7.414;2022-08-19T04:19:56;98199.22;;;16.81;100.00
62203;BME280;48199;49.138;7.414;2022-08-19T04:22:22;98204.22;;;16.70;100.00
62203;BME280;48199;49.138;7.414;2022-08-19T04:24:47;98206.16;;;16.67;100.00
62203;BME280;48199;49.138;7.414;2022-08-19T04:27:12;98193.38;;;16.58;100.00
62203;BME280;48199;49.138;7.414;2022-08-19T04:29:38;98194.44;;;16.54;100.00
62203;BME280;48199;49.138;7.414;2022-08-19T04:32:05;98195.47;;;16.51;100.00
62203;BME280;48199;49.138;7.414;2022-08-19T04:34:31;98192.88;;;16.50;100.00
62203;BME280;48199;49.138;7.414;2022-08-19T04:36:57;98195.88;;;16.42;100.00
62203;BME280;48199;49.138;7.414;2022-08-19T04:39:27;98204.69;;;16.44;100.00
62203;BME280;48199;49.138;7.414;2022-08-19T04:42:13;98201.19;;;16.42;100.00
62203;BME280;48199;49.138;7.414;2022-08-19T04:44:57;98199.63;;;16.38;100.00
62203;BME280;48199;49.138;7.414;2022-08-19T04:47:23;98209.59;;;16.33;100.00
62203;BME280;48199;49.138;7.414;2022-08-19T04:49:49;98205.09;;;16.35;100.00
62203;BME280;48199;49.138;7.414;2022-08-19T04:52:14;98205.16;;;16.34;100.00
62203;BME280;48199;49.138;7.414;2022-08-19T04:54:40;98203.38;;;16.34;100.00
62203;BME280;48199;49.138;7.414;2022-08-19T04:57:08;98201.34;;;16.39;100.00
62203;BME280;48199;49.138;7.414;2022-08-19T04:59:36;98206.50;;;16.42;100.00
62203;BME280;48199;49.138;7.414;2022-08-19T05:02:03;98212.75;;;16.41;100.00
62203;BME280;48199;49.138;7.414;2022-08-19T05:04:29;98218.06;;;16.41;100.00
62203;BME280;48199;49.138;7.414;2022-08-19T05:06:57;98217.13;;;16.42;100.00
62203;BME280;48199;49.138;7.414;2022-08-19T05:09:22;98212.56;;;16.46;100.00
62203;BME280;48199;49.138;7.414;2022-08-19T05:11:47;98211.69;;;16.45;100.00
62203;BME280;48199;49.138;7.414;2022-08-19T05:14:14;98215.41;;;16.41;100.00
62203;BME280;48199;49.138;7.414;2022-08-19T05:16:40;98211.97;;;16.39;100.00
62203;BME280;48199;49.138;7.414;2022-08-19T05:19:05;98228.78;;;16.40;100.00
62203;BME280;48199;49.138;7.414;2022-08-19T05:21:49;98227.50;;;16.48;100.00
62203;BME280;48199;49.138;7.414;2022-08-19T05:24:33;98229.78;;;16.56;100.00
62203;BME280;48199;49.138;7.414;2022-08-19T05:27:02;98232.06;;;16.63;100.00
62203;BME280;48199;49.138;7.414;2022-08-19T05:29:29;98229.19;;;16.68;100.00
62203;BME280;48199;49.138;7.414;2022-08-19T05:31:57;98236.06;;;16.72;100.00
62203;BME280;48199;49.138;7.414;2022-08-19T05:34:24;98236.63;;;16.78;100.00
62203;BME280;48199;49.138;7.414;2022-08-19T05:36:56;98242.22;;;17.06;100.00
62203;BME280;48199;49.138;7.414;2022-08-19T05:39:25;98247.00;;;17.17;100.00
62203;BME280;48199;49.138;7.414;2022-08-19T05:41:54;98253.09;;;17.19;100.00
62203;BME280;48199;49.138;7.414;2022-08-19T05:44:23;98255.47;;;17.25;100.00
62203;BME280;48199;49.138;7.414;2022-08-19T05:46:49;98257.81;;;17.31;100.00
62203;BME280;48199;49.138;7.414;2022-08-19T05:49:19;98263.72;;;17.36;100.00
62203;BME280;48199;49.138;7.414;2022-08-19T05:51:45;98267.66;;;17.46;100.00
62203;BME280;48199;49.138;7.414;2022-08-19T05:54:10;98255.84;;;17.52;100.00
62203;BME280;48199;49.138;7.414;2022-08-19T05:56:39;98258.00;;;17.61;100.00
62203;BME280;48199;49.138;7.414;2022-08-19T05:59:06;98271.44;;;17.75;100.00
62203;BME280;48199;49.138;7.414;2022-08-19T06:01:40;98275.00;;;17.91;100.00
62203;BME280;48199;49.138;7.414;2022-08-19T06:04:06;98283.78;;;18.08;100.00
62203;BME280;48199;49.138;7.414;2022-08-19T06:06:33;98286.22;;;18.13;100.00
62203;BME280;48199;49.138;7.414;2022-08-19T06:09:03;98289.72;;;18.13;100.00
62203;BME280;48199;49.138;7.414;2022-08-19T06:11:48;98296.41;;;18.37;100.00
62203;BME280;48199;49.138;7.414;2022-08-19T06:14:18;98297.41;;;18.66;100.00
62203;BME280;48199;49.138;7.414;2022-08-19T06:16:45;98300.50;;;18.74;100.00
62203;BME280;48199;49.138;7.414;2022-08-19T06:19:13;98302.56;;;18.84;100.00
62203;BME280;48199;49.138;7.414;2022-08-19T06:21:41;98307.53;;;18.90;100.00
62203;BME280;48199;49.138;7.414;2022-08-19T06:24:09;98305.53;;;18.94;100.00
62203;BME280;48199;49.138;7.414;2022-08-19T06:26:36;98308.28;;;19.08;100.00
62203;BME280;48199;49.138;7.414;2022-08-19T06:29:04;98308.84;;;19.13;100.00
62203;BME280;48199;49.138;7.414;2022-08-19T06:31:31;98306.44;;;19.24;100.00
62203;BME280;48199;49.138;7.414;2022-08-19T06:33:59;98311.41;;;19.30;99.75
62203;BME280;48199;49.138;7.414;2022-08-19T06:36:29;98312.44;;;19.43;99.05
62203;BME280;48199;49.138;7.414;2022-08-19T06:39:05;98315.34;;;19.82;98.18
62203;BME280;48199;49.138;7.414;2022-08-19T06:41:34;98314.47;;;20.66;95.20
62203;BME280;48199;49.138;7.414;2022-08-19T06:44:00;98316.94;;;21.49;89.24
62203;BME280;48199;49.138;7.414;2022-08-19T06:46:26;98310.53;;;22.14;85.00
62203;BME280;48199;49.138;7.414;2022-08-19T06:48:51;98307.09;;;23.09;80.66
62203;BME280;48199;49.138;7.414;2022-08-19T06:51:18;98305.44;;;23.77;78.31
62203;BME280;48199;49.138;7.414;2022-08-19T06:53:48;98310.41;;;24.49;75.98
62203;BME280;48199;49.138;7.414;2022-08-19T06:56:19;98309.25;;;24.96;72.40
62203;BME280;48199;49.138;7.414;2022-08-19T06:58:46;98304.75;;;25.60;68.32
62203;BME280;48199;49.138;7.414;2022-08-19T07:01:12;98309.97;;;26.13;64.61
62203;BME280;48199;49.138;7.414;2022-08-19T07:03:38;98306.41;;;26.33;63.44
62203;BME280;48199;49.138;7.414;2022-08-19T07:06:06;98306.88;;;26.48;62.75
62203;BME280;48199;49.138;7.414;2022-08-19T07:08:33;98307.41;;;26.72;61.84
62203;BME280;48199;49.138;7.414;2022-08-19T07:10:59;98310.72;;;26.85;60.98
62203;BME280;48199;49.138;7.414;2022-08-19T07:13:25;98309.47;;;26.89;60.63
62203;BME280;48199;49.138;7.414;2022-08-19T07:15:50;98311.41;;;27.55;59.69
62203;BME280;48199;49.138;7.414;2022-08-19T07:18:18;98307.81;;;28.02;57.17
62203;BME280;48199;49.138;7.414;2022-08-19T07:20:44;98308.16;;;28.45;55.32
62203;BME280;48199;49.138;7.414;2022-08-19T07:23:10;98313.38;;;28.56;55.10
62203;BME280;48199;49.138;7.414;2022-08-19T07:25:36;98303.38;;;28.20;56.14
62203;BME280;48199;49.138;7.414;2022-08-19T07:28:02;98303.50;;;27.14;58.84
62203;BME280;48199;49.138;7.414;2022-08-19T07:30:28;98305.19;;;28.29;55.91
62203;BME280;48199;49.138;7.414;2022-08-19T07:32:53;98296.63;;;28.97;54.35
62203;BME280;48199;49.138;7.414;2022-08-19T07:35:18;98296.41;;;28.54;53.82
62203;BME280;48199;49.138;7.414;2022-08-19T07:37:45;98290.63;;;29.03;53.90
62203;BME280;48199;49.138;7.414;2022-08-19T07:40:10;98293.41;;;29.11;53.62
62203;BME280;48199;49.138;7.414;2022-08-19T07:42:36;98290.25;;;28.62;54.02
62203;BME280;48199;49.138;7.414;2022-08-19T07:45:03;98290.88;;;27.81;55.52
62203;BME280;48199;49.138;7.414;2022-08-19T07:47:29;98283.97;;;27.31;57.89
62203;BME280;48199;49.138;7.414;2022-08-19T07:49:56;98283.75;;;27.23;57.86
62203;BME280;48199;49.138;7.414;2022-08-19T07:52:21;98279.75;;;26.49;58.63
62203;BME280;48199;49.138;7.414;2022-08-19T07:54:47;98289.97;;;26.46;61.57
62203;BME280;48199;49.138;7.414;2022-08-19T07:57:12;98286.00;;;26.50;61.32
62203;BME280;48199;49.138;7.414;2022-08-19T07:59:38;98293.25;;;27.08;60.27
62203;BME280;48199;49.138;7.414;2022-08-19T08:02:04;98282.50;;;27.27;58.39
62203;BME280;48199;49.138;7.414;2022-08-19T08:04:31;98289.63;;;27.38;57.19
62203;BME280;48199;49.138;7.414;2022-08-19T08:07:15;98292.16;;;27.20;57.62
62203;BME280;48199;49.138;7.414;2022-08-19T08:09:59;98286.78;;;27.30;57.42
62203;BME280;48199;49.138;7.414;2022-08-19T08:12:33;98287.94;;;27.37;57.21
62203;BME280;48199;49.138;7.414;2022-08-19T08:15:00;98292.47;;;27.55;56.74
62203;BME280;48199;49.138;7.414;2022-08-19T08:17:28;98294.03;;;28.42;55.21
62203;BME280;48199;49.138;7.414;2022-08-19T08:19:54;98294.97;;;28.23;54.91
62203;BME280;48199;49.138;7.414;2022-08-19T08:22:21;98297.19;;;28.37;54.00
62203;BME280;48199;49.138;7.414;2022-08-19T08:25:08;98308.97;;;28.82;52.82
62203;BME280;48199;49.138;7.414;2022-08-19T08:27:39;98312.50;;;28.10;54.43
62203;BME280;48199;49.138;7.414;2022-08-19T08:30:07;98316.13;;;27.91;55.39
62203;BME280;48199;49.138;7.414;2022-08-19T08:32:36;98314.66;;;28.89;52.70
62203;BME280;48199;49.138;7.414;2022-08-19T08:35:04;98313.16;;;29.21;52.25
62203;BME280;48199;49.138;7.414;2022-08-19T08:37:29;98313.66;;;28.63;52.57
62203;BME280;48199;49.138;7.414;2022-08-19T08:39:55;98314.75;;;28.70;52.57
62203;BME280;48199;49.138;7.414;2022-08-19T08:42:26;98318.09;;;28.81;52.95
62203;BME280;48199;49.138;7.414;2022-08-19T08:44:58;98309.38;;;28.87;52.91
62203;BME280;48199;49.138;7.414;2022-08-19T08:47:25;98314.66;;;29.34;52.06
62203;BME280;48199;49.138;7.414;2022-08-19T08:50:00;98321.75;;;28.90;51.98
62203;BME280;48199;49.138;7.414;2022-08-19T08:52:30;98320.31;;;28.95;51.92
62203;BME280;48199;49.138;7.414;2022-08-19T08:54:58;98314.91;;;29.93;49.37
62203;BME280;48199;49.138;7.414;2022-08-19T09:00:19;98305.66;;;30.03;48.91
62203;BME280;48199;49.138;7.414;2022-08-19T09:02:46;98310.75;;;29.63;48.94
62203;BME280;48199;49.138;7.414;2022-08-19T09:05:12;98314.59;;;29.43;51.09
62203;BME280;48199;49.138;7.414;2022-08-19T09:08:06;98321.00;;;29.42;49.46
62203;BME280;48199;49.138;7.414;2022-08-19T09:13:30;98333.31;;;30.07;48.50
62203;BME280;48199;49.138;7.414;2022-08-19T09:16:03;98330.22;;;30.45;48.30
62203;BME280;48199;49.138;7.414;2022-08-19T09:18:49;98324.78;;;30.45;47.11
62203;BME280;48199;49.138;7.414;2022-08-19T09:21:18;98312.50;;;29.19;49.39
62203;BME280;48199;49.138;7.414;2022-08-19T09:23:45;98306.88;;;30.09;48.71
62203;BME280;48199;49.138;7.414;2022-08-19T09:26:16;98312.88;;;29.95;48.22
62203;BME280;48199;49.138;7.414;2022-08-19T09:28:45;98315.28;;;30.49;47.43
62203;BME280;48199;49.138;7.414;2022-08-19T09:31:17;98313.03;;;30.95;45.87
62203;BME280;48199;49.138;7.414;2022-08-19T09:33:43;98316.66;;;31.20;46.10
62203;BME280;48199;49.138;7.414;2022-08-19T09:36:10;98318.31;;;31.05;46.34
62203;BME280;48199;49.138;7.414;2022-08-19T09:38:37;98316.28;;;31.07;46.44
62203;BME280;48199;49.138;7.414;2022-08-19T09:41:14;98312.28;;;31.27;45.38
62203;BME280;48199;49.138;7.414;2022-08-19T09:43:41;98311.66;;;31.49;43.97
62203;BME280;48199;49.138;7.414;2022-08-19T09:46:08;98313.38;;;32.14;43.08
62203;BME280;48199;49.138;7.414;2022-08-19T09:48:37;98312.53;;;31.74;43.13
62203;BME280;48199;49.138;7.414;2022-08-19T09:53:29;98303.75;;;28.71;48.47
62203;BME280;48199;49.138;7.414;2022-08-19T09:55:55;98302.44;;;29.30;48.77
62203;BME280;48199;49.138;7.414;2022-08-19T09:58:20;98293.13;;;29.50;48.59
62203;BME280;48199;49.138;7.414;2022-08-19T10:00:45;98296.44;;;29.79;47.73
62203;BME280;48199;49.138;7.414;2022-08-19T10:03:11;98292.75;;;30.05;45.67
62203;BME280;48199;49.138;7.414;2022-08-19T10:05:37;98300.44;;;30.10;45.79
62203;BME280;48199;49.138;7.414;2022-08-19T10:08:20;98284.53;;;30.15;45.26
62203;BME280;48199;49.138;7.414;2022-08-19T10:10:46;98281.75;;;29.11;47.52
62203;BME280;48199;49.138;7.414;2022-08-19T10:13:15;98290.19;;;29.61;46.78
62203;BME280;48199;49.138;7.414;2022-08-19T10:15:40;98288.63;;;30.44;45.07
62203;BME280;48199;49.138;7.414;2022-08-19T10:18:07;98291.03;;;30.22;44.90
62203;BME280;48199;49.138;7.414;2022-08-19T10:20:32;98283.38;;;28.67;48.11
62203;BME280;48199;49.138;7.414;2022-08-19T10:22:58;98290.19;;;27.60;50.09
62203;BME280;48199;49.138;7.414;2022-08-19T10:25:26;98289.72;;;27.17;51.63
62203;BME280;48199;49.138;7.414;2022-08-19T10:27:52;98291.56;;;28.12;50.51
62203;BME280;48199;49.138;7.414;2022-08-19T10:30:19;98292.59;;;29.46;47.04
62203;BME280;48199;49.138;7.414;2022-08-19T10:32:44;98291.88;;;30.73;44.42
62203;BME280;48199;49.138;7.414;2022-08-19T10:35:11;98293.19;;;31.11;43.24
62203;BME280;48199;49.138;7.414;2022-08-19T10:37:38;98287.38;;;31.06;42.06
62203;BME280;48199;49.138;7.414;2022-08-19T10:40:06;98278.19;;;29.46;45.08
62203;BME280;48199;49.138;7.414;2022-08-19T10:42:33;98280.19;;;28.08;48.14
62203;BME280;48199;49.138;7.414;2022-08-19T10:44:58;98279.69;;;27.38;50.10
62203;BME280;48199;49.138;7.414;2022-08-19T10:47:24;98276.59;;;28.08;49.98
62203;BME280;48199;49.138;7.414;2022-08-19T10:49:49;98268.09;;;29.20;46.91
62203;BME280;48199;49.138;7.414;2022-08-19T10:52:33;98267.88;;;28.23;48.80
62203;BME280;48199;49.138;7.414;2022-08-19T10:55:08;98261.72;;;27.18;51.42
62203;BME280;48199;49.138;7.414;2022-08-19T10:57:52;98264.53;;;28.02;51.51
62203;BME280;48199;49.138;7.414;2022-08-19T11:00:21;98260.50;;;28.79;48.96
62203;BME280;48199;49.138;7.414;2022-08-19T11:02:48;98260.28;;;29.17;46.67
62203;BME280;48199;49.138;7.414;2022-08-19T11:05:14;98265.53;;;29.72;47.16
62203;BME280;48199;49.138;7.414;2022-08-19T11:07:41;98253.41;;;30.09;45.54
62203;BME280;48199;49.138;7.414;2022-08-19T11:10:09;98254.03;;;29.70;46.39
62203;BME280;48199;49.138;7.414;2022-08-19T11:12:37;98247.78;;;29.60;45.70
62203;BME280;48199;49.138;7.414;2022-08-19T11:15:05;98245.50;;;29.30;46.68
62203;BME280;48199;49.138;7.414;2022-08-19T11:17:32;98244.09;;;29.26;46.69
62203;BME280;48199;49.138;7.414;2022-08-19T11:19:58;98240.31;;;29.36;45.92
62203;BME280;48199;49.138;7.414;2022-08-19T11:22:24;98237.50;;;29.46;45.86
62203;BME280;48199;49.138;7.414;2022-08-19T11:24:50;98242.56;;;29.84;46.07
62203;BME280;48199;49.138;7.414;2022-08-19T11:27:15;98239.69;;;30.11;45.52
62203;BME280;48199;49.138;7.414;2022-08-19T11:29:40;98240.94;;;29.12;45.62
62203;BME280;48199;49.138;7.414;2022-08-19T11:32:08;98246.88;;;27.98;48.02
62203;BME280;48199;49.138;7.414;2022-08-19T11:34:35;98241.25;;;27.63;48.00
62203;BME280;48199;49.138;7.414;2022-08-19T11:37:01;98256.94;;;28.15;48.02
62203;BME280;48199;49.138;7.414;2022-08-19T11:39:30;98254.00;;;27.99;48.29
62203;BME280;48199;49.138;7.414;2022-08-19T11:41:58;98247.41;;;28.11;48.38
62203;BME280;48199;49.138;7.414;2022-08-19T11:44:24;98238.53;;;29.09;46.18
62203;BME280;48199;49.138;7.414;2022-08-19T11:46:50;98232.03;;;28.75;46.26
62203;BME280;48199;49.138;7.414;2022-08-19T11:49:18;98240.81;;;28.23;48.19
62203;BME280;48199;49.138;7.414;2022-08-19T11:51:44;98241.81;;;28.22;47.73
62203;BME280;48199;49.138;7.414;2022-08-19T11:54:11;98248.06;;;27.77;48.49
62203;BME280;48199;49.138;7.414;2022-08-19T11:56:38;98236.69;;;27.06;48.89
62203;BME280;48199;49.138;7.414;2022-08-19T11:59:04;98247.19;;;27.09;50.46
62203;BME280;48199;49.138;7.414;2022-08-19T12:01:29;98235.84;;;27.35;48.38
62203;BME280;48199;49.138;7.414;2022-08-19T12:03:56;98234.16;;;27.43;48.53
62203;BME280;48199;49.138;7.414;2022-08-19T12:06:31;98244.09;;;27.52;47.89
62203;BME280;48199;49.138;7.414;2022-08-19T12:09:04;98245.50;;;27.75;47.96
62203;BME280;48199;49.138;7.414;2022-08-19T12:11:30;98244.00;;;28.09;46.89
62203;BME280;48199;49.138;7.414;2022-08-19T12:13:55;98235.47;;;28.41;44.89
62203;BME280;48199;49.138;7.414;2022-08-19T12:16:25;98226.44;;;28.50;45.61
62203;BME280;48199;49.138;7.414;2022-08-19T12:18:52;98235.34;;;28.33;45.24
62203;BME280;48199;49.138;7.414;2022-08-19T12:21:23;98223.81;;;27.85;46.64
62203;BME280;48199;49.138;7.414;2022-08-19T12:23:50;98224.31;;;27.42;47.29
62203;BME280;48199;49.138;7.414;2022-08-19T12:26:17;98220.19;;;27.19;48.68
62203;BME280;48199;49.138;7.414;2022-08-19T12:28:42;98217.47;;;26.81;48.87
62203;BME280;48199;49.138;7.414;2022-08-19T12:31:08;98208.50;;;26.71;48.81
62203;BME280;48199;49.138;7.414;2022-08-19T12:33:37;98208.25;;;26.93;49.06
62203;BME280;48199;49.138;7.414;2022-08-19T12:36:05;98212.91;;;26.72;49.40
62203;BME280;48199;49.138;7.414;2022-08-19T12:38:31;98203.94;;;26.62;49.45
62203;BME280;48199;49.138;7.414;2022-08-19T12:40:58;98210.13;;;26.53;48.56
62203;BME280;48199;49.138;7.414;2022-08-19T12:43:23;98203.66;;;26.65;47.43
62203;BME280;48199;49.138;7.414;2022-08-19T12:45:49;98203.09;;;26.71;47.90
62203;BME280;48199;49.138;7.414;2022-08-19T12:48:14;98193.47;;;26.87;46.22
62203;BME280;48199;49.138;7.414;2022-08-19T12:50:40;98185.50;;;26.86;46.32
62203;BME280;48199;49.138;7.414;2022-08-19T12:53:06;98182.22;;;26.92;48.30
62203;BME280;48199;49.138;7.414;2022-08-19T12:55:31;98176.97;;;26.81;46.23
62203;BME280;48199;49.138;7.414;2022-08-19T12:57:57;98178.94;;;26.79;46.45
62203;BME280;48199;49.138;7.414;2022-08-19T13:00:23;98185.75;;;26.64;46.57
62203;BME280;48199;49.138;7.414;2022-08-19T13:02:51;98184.91;;;26.82;45.66
62203;BME280;48199;49.138;7.414;2022-08-19T13:05:20;98189.44;;;26.63;46.39